Página principal
METAR-TAF:

METAR-TAF

Aeroportos :

Kuwait, Kuwait

Aeroporto Internacional do Kuwait

latitude: 29-13N, longitude: 047-59E, altura: 55 m

Observação actual do tempo

O boletim foi feito há 32 minutos, às 14:00 UTC
Vento 14 kt de norte
Temperatura 41°C
Humidade 13%
Pressão 1007 hPa
Visibilidade: 7000 m

METAR: OKBK 231400Z 35014KT 7000 NSC 41/07 Q1007 NOSIG

Hora: 17:32 (14:32 UTC)

Previsão

O boletim foi feito há 3 horas e 47 minutos, às 10:45 UTC
Previsão válida de 23 às 12 UTC a 24 às 18 UTC
Vento 12 kt de nor-noroeste com rajadas de 22 kt
Visibilidade: 7000 m
Temporariamente
de 23 às 12 UTC a 23 às 21 UTC
Visibilidade: 2500 m
Poeira levantada pelo vento

TAF: OKBK 231045Z 2312/2418 33012G22KT 7000 NSC TEMPO 2312/2321 2500 BLDU

Observações e previsões do tempo de mais de 4000 aeroportos (mensagens METAR e TAF).

As estações disponíveis são os pontos amarelos e vermelhos sobre o mapa.

Mova o rato sobre o mapa para ver o nome da estação.

Depois clique no ponto para visualizar as observações e previsões meteorológicas.

Para alterar o mapa : clique nos botões verdes com uma cruz preta para aumentar o zoom; no botão verde com uma pitada de zoom; ou nas setas verdes para mapas adjacentes.


METAR-TAF: